• Join FlightAware (Why Join?)
  • Login
  • US Flag 
10:54AM EDT


 

Airport Tracker/Info


-or-


 

Live Flight TrackerFlight Track Log ✈ N539UA ✈ 18-Jun-2013 ✈ KSFO - KEWR

Flight Track Log - Related Links

Times and Time Zones

All times are in EDT time to prevent confusion due to time zone crossing. See the N539UA flight status page for this flight to view local times or setup timezone preferences in your user account.

Time Position Orientation Groundspeed Altitude Reporting Facility
EDT Latitude Longitude Course Direction KTS MPH feet Rate Location/Type
03:55PM 37.6500 -122.3833 77° East 197 227 1,900  Level Northern Cal TRACON
03:56PM 37.6833 -122.3167 58° Northeast 221 254 4,000 2,160 Climbing Northern Cal TRACON
03:57PM 37.8367 -121.9733 54° Northeast  Level FlightAware Approximate
03:57PM 37.7167 -122.2333 63° Northeast 279 321 6,300  Level Northern Cal TRACON
03:58PM 37.9075 -121.8351 58° Northeast  Level FlightAware Approximate
03:58PM 37.7500 -122.1500 63° Northeast 300 345 8,800  Level Northern Cal TRACON
03:59PM 37.9449 -121.6812 78° East  Level FlightAware Approximate
04:00PM 37.9722 -121.5198 77° East  Level FlightAware Approximate
04:00PM 37.8189 -121.8981 71° East 370 426 12,900  Level Oakland Center
04:01PM 37.8553 -121.7694 70° East 389 448 15,000 1,860 Climbing Oakland Center
04:02PM 37.8939 -121.6331 70° East 408 470 16,800 1,320 Climbing Oakland Center
04:03PM 37.9275 -121.4842 74° East 439 505 17,800 1,260 Climbing Oakland Center
04:04PM 37.9564 -121.3286 77° East 468 539 19,400 1,680 Climbing Oakland Center
04:05PM 37.9942 -121.1292 76° East 487 560 21,300 1,560 Climbing Oakland Center
04:06PM 38.0264 -120.9592 76° East 498 573 22,600 1,260 Climbing Oakland Center
04:07PM 38.0597 -120.7836 76° East 511 588 24,000 1,260 Climbing Oakland Center
04:08PM 38.0933 -120.6047 77° East 522 601 25,300 1,200 Climbing Oakland Center
04:09PM 38.1269 -120.4233 77° East 530 610 26,500 1,200 Climbing Oakland Center
04:10PM 38.1619 -120.2375 76° East 540 621 27,800 1,320 Climbing Oakland Center
04:11PM 38.1956 -120.0525 77° East 539 620 29,300 1,380 Climbing Oakland Center
04:12PM 38.2300 -119.8692 76° East 536 617 30,700 1,320 Climbing Oakland Center
04:13PM 38.2664 -119.6506 78° East 529 609 32,100 1,380 Climbing Oakland Center
04:14PM 38.2994 -119.4678 77° East 530 610 33,600 1,200 Climbing Oakland Center
04:15PM 38.3272 -119.3103 77° East 511 588 34,600 660 Climbing Oakland Center
04:16PM 38.3581 -119.1308 78° East 518 596 35,000 180 Climbing Oakland Center
04:17PM 38.3894 -118.9517 77° East 521 600 35,000  Level Oakland Center
04:18PM 38.4264 -118.7356 78° East 522 601 35,000  Level Oakland Center
04:19PM 38.4564 -118.5544 78° East 524 603 35,000  Level Oakland Center
04:20PM 38.4872 -118.3739 78° East 525 604 35,000  Level Oakland Center
04:21PM 38.5175 -118.1936 78° East 524 603 35,000  Level Oakland Center
04:22PM 38.5456 -118.0225 78° East 519 597 35,000  Level Oakland Center
04:23PM 38.5747 -117.8408 78° East 520 598 35,000  Level Oakland Center
04:24PM 38.6036 -117.6594 78° East 518 596 35,000  Level Oakland Center
04:25PM 38.6319 -117.4792 79° East 514 592 35,000  Level Oakland Center
04:26PM 38.6600 -117.3003 79° East 512 589 35,000  Level Oakland Center
04:27PM 38.6878 -117.1200 79° East 511 588 35,000  Level Oakland Center
04:28PM 38.7214 -116.9025 79° East 514 592 35,000  Level Oakland Center
04:29PM 38.7489 -116.7200 79° East 519 597 35,000  Level Oakland Center
04:31PM 38.7814 -116.5008 79° East 520 598 35,000  Level Salt Lake Center
04:32PM 38.8025 -116.3550 79° East 520 598 35,000  Level Oakland Center
04:33PM 38.8289 -116.1742 79° East 515 593 35,000  Level Oakland Center
04:34PM 38.8594 -115.9578 80° East 516 594 35,000  Level Salt Lake Center
04:35PM 38.8914 -115.7378 79° East 521 600 35,000  Level Salt Lake Center
04:36PM 38.9164 -115.5564 80° East 518 596 35,000  Level Salt Lake Center
04:37PM 38.9419 -115.3806 79° East 522 601 35,000  Level Salt Lake Center
04:38PM 38.9669 -115.1978 80° East 522 601 35,000  Level Salt Lake Center
04:39PM 38.9911 -115.0161 80° East 519 597 35,000  Level Salt Lake Center
04:40PM 39.0153 -114.8339 80° East 518 596 35,000  Level Salt Lake Center
04:41PM 39.0467 -114.6128 80° East 520 598 35,000  Level Salt Lake Center
04:42PM 39.0711 -114.4306 80° East 517 595 35,000  Level Salt Lake Center
04:43PM 39.0947 -114.2464 81° East 519 597 35,000  Level Salt Lake Center
04:44PM 39.1167 -114.0647 81° East 515 593 35,000  Level Salt Lake Center
04:45PM 39.1403 -113.8797 81° East 521 600 35,000  Level Salt Lake Center
04:46PM 39.1625 -113.6975 81° East 517 595 35,000  Level Salt Lake Center
04:47PM 39.1839 -113.5161 81° East 513 590 35,000  Level Salt Lake Center
04:48PM 39.2056 -113.3342 81° East 513 590 35,000  Level Salt Lake Center
04:49PM 39.2331 -113.1150 81° East 515 593 35,000  Level Salt Lake Center
04:50PM 39.2547 -112.9339 81° East 513 590 35,000  Level Salt Lake Center
04:51PM 39.2753 -112.7519 82° East 511 588 35,000  Level Salt Lake Center
04:52PM 39.2950 -112.5769 82° East 507 583 35,000  Level Salt Lake Center
04:53PM 39.3242 -112.3992 78° East 509 586 35,000  Level Salt Lake Center
04:54PM 39.3611 -112.2200 75° East 518 596 35,000 240 Level Salt Lake Center
04:55PM 39.4033 -112.0083 75° East 511 588 35,600 720 Climbing Salt Lake Center
04:57PM 39.4375 -111.8325 76° East 507 583 36,600 660 Climbing Salt Lake Center
04:58PM 39.4706 -111.6581 76° East 503 579 37,000 180 Climbing Salt Lake Center
04:59PM 39.5072 -111.4847 75° East 501 577 37,000  Level Salt Lake Center
05:00PM 39.5397 -111.3081 77° East 505 581 37,000  Level Salt Lake Center
05:01PM 39.5764 -111.1250 75° East 504 580 37,000  Level Salt Lake Center
05:02PM 39.6128 -110.9283 76° East 504 580 37,000  Level Salt Lake Center
05:03PM 39.6450 -110.7597 76° East 503 579 37,000  Level Salt Lake Center
05:04PM 39.6817 -110.5650 76° East 499 574 37,000  Level Salt Lake Center
05:05PM 39.7125 -110.3981 76° East 497 572 37,000  Level Salt Lake Center
05:06PM 39.7469 -110.2036 77° East 494 568 37,000  Level Salt Lake Center
05:07PM 39.7775 -110.0375 76° East 494 568 37,000  Level Salt Lake Center
05:08PM 39.8061 -109.8706 77° East 492 566 37,000  Level Denver Center
05:10PM 39.8700 -109.5108 77° East 492 566 37,000  Level Denver Center
05:11PM 39.8997 -109.3447 77° East 490 564 37,000  Level Denver Center
05:12PM 39.9336 -109.1492 77° East 492 566 37,000  Level Denver Center
05:13PM 39.9617 -108.9808 78° East 493 567 37,000  Level Denver Center
05:14PM 39.9900 -108.8111 78° East 495 570 37,000  Level Denver Center
05:15PM 40.0233 -108.6131 78° East 496 571 37,000  Level Denver Center
05:16PM 40.0506 -108.4450 78° East 494 568 37,000  Level Denver Center
05:17PM 40.0825 -108.2492 78° East 492 566 37,000  Level Denver Center
05:18PM 40.1094 -108.0842 78° East 485 558 37,000  Level Denver Center
05:19PM 40.1367 -107.9186 78° East 486 559 37,000  Level Denver Center
05:20PM 40.1669 -107.7236 78° East 488 562 37,000  Level Denver Center
05:21PM 40.1931 -107.5586 78° East 485 558 37,000  Level Denver Center
05:22PM 40.2233 -107.3650 78° East 486 559 37,000  Level Denver Center
05:23PM 40.2489 -107.1992 79° East 485 558 37,000  Level Denver Center
05:24PM 40.2806 -107.0042 78° East 490 564 37,000  Level Denver Center
05:25PM 40.3067 -106.8264 79° East 485 558 37,000  Level Denver Center
05:26PM 40.3322 -106.6511 79° East 486 559 37,000  Level Denver Center
05:27PM 40.3586 -106.4772 79° East 486 559 37,000  Level Denver Center
05:28PM 40.3831 -106.3103 79° East 487 560 37,000  Level Denver Center
05:29PM 40.4103 -106.1181 79° East 487 560 37,000  Level Denver Center
05:30PM 40.4356 -105.9444 79° East 487 560 37,000  Level Denver Center
05:31PM 40.4600 -105.7672 80° East 493 567 37,000  Level Denver Center
05:32PM 40.4839 -105.5936 80° East 486 559 37,000  Level Denver Center
05:34PM 40.5083 -105.4194 79° East 486 559 37,000  Level Denver Center
05:35PM 40.5358 -105.2103 80° East 485 558 37,000  Level Denver Center
05:36PM 40.5594 -105.0331 80° East 488 562 37,000  Level Denver Center
05:37PM 40.5831 -104.8586 80° East 485 558 37,000  Level Denver Center
05:38PM 40.6058 -104.6814 80° East 489 563 37,000  Level Denver Center
05:39PM 40.6292 -104.5022 80° East 494 568 37,000  Level Denver Center
05:40PM 40.6506 -104.3264 81° East 489 563 37,000  Level Denver Center
05:41PM 40.6931 -104.1569 72° East 487 560 37,000  Level Denver Center
05:42PM 40.7369 -103.9925 71° East 473 544 37,000  Level Denver Center
05:43PM 40.7889 -103.7867 72° East 492 566 37,000  Level Denver Center
05:44PM 40.8156 -103.6056 79° East 499 574 37,000  Level Denver Center
05:45PM 40.8389 -103.4225 80° East 503 579 37,000  Level Denver Center
05:46PM 40.8622 -103.2417 80° East 502 578 37,000  Level Denver Center
05:47PM 40.8847 -103.0608 81° East 500 575 37,000  Level Denver Center
05:48PM 40.9092 -102.8547 81° East 497 572 37,000  Level Denver Center
05:49PM 40.9328 -102.6847 80° East 494 568 37,000  Level Denver Center
05:50PM 40.9522 -102.5150 81° East 489 563 37,000  Level Denver Center
05:51PM 40.9744 -102.3161 82° East 488 562 37,000  Level Denver Center
05:52PM 40.9956 -102.1481 80° East 485 558 37,000  Level Denver Center
05:53PM 41.0178 -101.9500 81° East 487 560 37,000  Level Denver Center
05:54PM 41.0381 -101.7814 81° East 486 559 37,000  Level Denver Center
05:55PM 41.0611 -101.5847 81° East 484 557 37,000  Level Denver Center
05:56PM 41.0819 -101.3903 82° East 478 550 37,000  Level Denver Center
05:57PM 41.1031 -101.1947 82° East 478 550 37,000  Level Denver Center
05:58PM 41.1217 -101.0275 82° East 477 549 37,000  Level Denver Center
05:59PM 41.1422 -100.8294 82° East 481 554 37,000  Level Denver Center
06:00PM 41.1603 -100.6592 82° East 481 554 37,000  Level Denver Center
06:02PM 41.1778 -100.4917 82° East 477 549 37,000  Level Denver Center
06:03PM 41.1981 -100.2953 82° East 478 550 37,000  Level Denver Center
06:04PM 41.2147 -100.1278 82° East 478 550 37,000  Level Denver Center
06:05PM 41.2333 -99.9336 83° East 475 547 37,000  Level Denver Center
06:06PM 41.2503 -99.7667 82° East 475 547 37,000  Level Denver Center
06:07PM 41.2683 -99.5731 83° East 474 545 37,000  Level Denver Center
06:08PM 41.2833 -99.4036 83° East 474 545 37,000  Level Denver Center
06:09PM 41.2994 -99.2294 83° East 473 544 37,000  Level Denver Center
06:10PM 41.3158 -99.0553 83° East 472 543 37,000  Level Denver Center
06:11PM 41.3325 -98.8783 83° East 472 543 37,000  Level Denver Center
06:12PM 41.3472 -98.6994 84° East 475 547 37,000  Level Denver Center
06:13PM 41.3622 -98.5222 84° East 476 548 37,000  Level Denver Center
06:15PM 41.3811 -98.2767 84° East 478 550 37,000  Level Minneapolis Center
06:16PM 41.3856 -98.0525 88° East 475 547 37,000  Level Minneapolis Center
06:17PM 41.3908 -97.8767 88° East 476 548 37,000  Level Minneapolis Center
06:18PM 41.3961 -97.7003 88° East 477 549 37,000  Level Minneapolis Center
06:19PM 41.4014 -97.5242 88° East 477 549 37,000  Level Minneapolis Center
06:20PM 41.4081 -97.2781 88° East 476 548 37,000  Level Minneapolis Center
06:21PM 41.4108 -97.1031 89° East 474 545 37,000  Level Minneapolis Center
06:22PM 41.4144 -96.9281 88° East 474 545 37,000  Level Minneapolis Center
06:23PM 41.4189 -96.7514 88° East 476 548 37,000  Level Minneapolis Center
06:24PM 41.4219 -96.5753 89° East 476 548 37,000  Level Minneapolis Center
06:25PM 41.4250 -96.4342 88° East 476 548 37,000  Level Minneapolis Center
06:26PM 41.4267 -96.1956 89° East 482 555 37,000  Level Minneapolis Center
06:27PM 41.4292 -96.0189 89° East 479 551 37,000  Level Minneapolis Center
06:28PM 41.4300 -95.8411 90° East 479 551 37,000  Level Minneapolis Center
06:29PM 41.4336 -95.6392 89° East 480 552 37,000  Level Minneapolis Center
06:30PM 41.4342 -95.4589 90° East 480 552 37,000  Level Minneapolis Center
06:31PM 41.4364 -95.2806 89° East 481 554 37,000  Level Minneapolis Center
06:32PM 41.4386 -95.1025 89° East 482 555 37,000  Level Minneapolis Center
06:33PM 41.4383 -94.9256 90° East 479 551 37,000  Level Minneapolis Center
06:34PM 41.4392 -94.7469 90° East 482 555 37,000  Level Minneapolis Center
06:35PM 41.4400 -94.5322 90° East 483 556 37,000  Level Minneapolis Center
06:36PM 41.4394 -94.3544 90° East 481 554 37,000  Level Minneapolis Center
06:37PM 41.4375 -94.2097 91° East 485 558 37,000  Level Minneapolis Center
06:38PM 41.4372 -94.0086 90° East 486 559 37,000  Level Minneapolis Center
06:40PM 41.4375 -93.7933 90° East 488 562 37,000  Level Minneapolis Center
06:41PM 41.4400 -93.6142 89° East 487 560 37,000  Level Minneapolis Center
06:42PM 41.4589 -93.4356 82° East 488 562 37,000  Level Minneapolis Center
06:43PM 41.4850 -93.1500 83° East 485 558 37,000  Level Chicago Center
06:44PM 41.5017 -92.9728 83° East 485 558 37,000  Level Chicago Center
06:45PM 41.5175 -92.7972 83° East 482 555 37,000  Level Chicago Center
06:46PM 41.5350 -92.6047 83° East 481 554 37,000  Level Chicago Center
06:47PM 41.5503 -92.4319 83° East 478 550 37,000  Level Chicago Center
06:48PM 41.5672 -92.2253 84° East 474 545 37,000  Level Chicago Center
06:49PM 41.5828 -92.0506 83° East 479 551 37,000  Level Chicago Center
06:50PM 41.5967 -91.8772 84° East 476 548 37,000 -540 Level Chicago Center
06:51PM 41.6117 -91.7011 83° East 482 555 35,900 -1,020 Descending Chicago Center
06:53PM 41.6292 -91.4856 84° East 493 567 35,000 -480 Descending Chicago Center
06:54PM 41.6433 -91.3042 84° East 496 571 35,000  Level Chicago Center
06:55PM 41.6581 -91.1214 84° East 501 577 35,000  Level Chicago Center
06:56PM 41.6719 -90.9369 84° East 506 582 35,000  Level Chicago Center
06:57PM 41.6850 -90.7542 84° East 502 578 35,000  Level Chicago Center
06:58PM 41.7011 -90.5339 84° East 505 581 35,000  Level Chicago Center
06:59PM 41.7150 -90.3453 84° East 508 585 35,000  Level Chicago Center
07:00PM 41.7269 -90.1586 85° East 504 580 35,000  Level Chicago Center
07:01PM 41.7394 -89.9714 85° East 504 580 35,000  Level Chicago Center
07:02PM 41.7519 -89.7831 85° East 505 581 35,000  Level Chicago Center
07:03PM 41.7661 -89.5589 85° East 503 579 35,000  Level Chicago Center
07:04PM 41.7758 -89.3942 85° East 503 579 35,000  Level Chicago Center
07:05PM 41.7894 -89.1722 85° East 503 579 35,000  Level Chicago Center
07:06PM 41.7997 -88.9889 86° East 497 572 35,000  Level Chicago Center
07:07PM 41.8097 -88.8036 86° East 503 579 35,000  Level Chicago Center
07:08PM 41.8200 -88.6164 86° East 506 582 35,000  Level Chicago Center
07:09PM 41.8292 -88.4300 86° East 505 581 35,000 480 Level Chicago Center
07:10PM 41.8397 -88.2419 86° East 506 582 36,000 960 Climbing Chicago Center
07:11PM 41.8508 -88.0136 86° East 508 585 37,000 480 Climbing Chicago Center
07:12PM 41.8597 -87.8228 86° East 511 588 37,000  Level Chicago Center
07:13PM 41.8672 -87.6322 87° East 511 588 37,000  Level Chicago Center
07:14PM 41.8772 -87.4406 86° East 515 593 37,000  Level Chicago Center
07:15PM 41.8853 -87.2472 87° East 519 597 37,000  Level Chicago Center
07:16PM 41.8919 -87.0522 87° East 526 605 37,000  Level Chicago Center
07:17PM 41.9014 -86.8175 87° East 528 608 37,000  Level Chicago Center
07:18PM 41.9081 -86.6306 87° East 533 613 37,000  Level Chicago Center
07:19PM 41.9153 -86.4319 87° East 534 615 37,000  Level Chicago Center
07:20PM 41.9225 -86.2339 87° East 532 612 37,000  Level Chicago Center
07:22PM 41.9289 -86.0344 87° East 535 616 37,000  Level Chicago Center
07:23PM 41.9364 -85.7950 88° East 533 613 37,000  Level Chicago Center
07:24PM 41.9428 -85.5936 87° East 535 616 37,000  Level Chicago Center
07:25PM 41.9475 -85.3903 88° East 538 619 37,000  Level Chicago Center
07:26PM 41.9525 -85.1900 88° East 531 611 37,000  Level Chicago Center
07:27PM 41.9511 -84.9886 90° East 534 615 37,000  Level Chicago Center
07:28PM 41.9503 -84.7828 90° East 550 633 37,000  Level Chicago Center
07:29PM 41.9475 -84.5822 91° East 540 621 37,000  Level Chicago Center
07:30PM 41.9458 -84.3400 90° East 539 620 37,000  Level Chicago Center
07:31PM 41.9436 -84.1372 91° East 543 625 37,000  Level Chicago Center
07:32PM 41.9394 -83.9611 92° East 536 617 37,000  Level Cleveland Center
07:33PM 41.9369 -83.7569 91° East 536 617 37,000  Level Cleveland Center
07:34PM 41.9328 -83.5978 92° East 536 617 37,000  Level Cleveland Center
07:35PM 41.9328 -83.3550 90° East 536 617 37,000  Level Cleveland Center
07:36PM 41.9311 -83.1511 91° East 542 624 37,000  Level Cleveland Center
07:37PM 41.9294 -82.9472 91° East 542 624 37,000  Level Cleveland Center
07:38PM 41.9272 -82.7433 91° East 542 624 37,000  Level Cleveland Center
07:39PM 41.9244 -82.5450 91° East 536 617 37,000  Level Cleveland Center
07:40PM 41.9233 -82.3469 90° East 536 617 37,000  Level Cleveland Center
07:41PM 41.9200 -82.1486 91° East 536 617 37,000  Level Cleveland Center
07:42PM 41.9203 -81.9672 90° East 536 617 37,000  Level Cleveland Center
07:43PM 41.9100 -81.7661 94° East 536 617 37,000  Level Cleveland Center
07:44PM 41.8931 -81.5678 96° East 542 624 37,000  Level Cleveland Center
07:45PM 41.8739 -81.3500 97° East 542 624 37,000  Level Cleveland Center
07:46PM 41.8544 -81.1464 97° East 542 624 37,000  Level Cleveland Center
07:47PM 41.8364 -80.9456 97° East 542 624 37,000  Level Cleveland Center
07:48PM 41.8161 -80.7447 98° East 542 624 37,000  Level Cleveland Center
07:49PM 41.7975 -80.5469 97° East 542 624 37,000  Level Cleveland Center
07:50PM 41.7764 -80.3436 98° East 542 624 37,000  Level Cleveland Center
07:51PM 41.7569 -80.1461 97° East 542 624 37,000  Level Cleveland Center
07:52PM 41.7394 -79.9681 97° East 542 624 37,000  Level Cleveland Center
07:53PM 41.7175 -79.7708 98° East 535 616 37,000  Level Cleveland Center
07:54PM 41.6947 -79.5542 98° East 535 616 37,000  Level Cleveland Center
07:55PM 41.6742 -79.3544 98° East 541 623 37,000  Level Cleveland Center
07:56PM 41.6511 -79.1575 99° East 541 623 37,000  Level Cleveland Center
07:57PM 41.6297 -78.9608 98° East 541 623 37,000  Level Cleveland Center
07:58PM 41.6058 -78.7642 99° East 541 623 37,000  Level Cleveland Center
07:59PM 41.5858 -78.5678 98° East 541 623 37,000 -120 Level Cleveland Center
08:00PM 41.5614 -78.3742 100° East 541 623 36,800 -1,440 Descending Cleveland Center
08:01PM 41.5367 -78.1808 100° East 536 617 34,200 -2,520 Descending Cleveland Center
08:02PM 41.5089 -77.9433 99° East 538 619 31,200 -1,440 Descending New York Center
08:03PM 41.4831 -77.7494 100° East 533 613 31,000 -120 Descending New York Center
08:04PM 41.4544 -77.5583 101° East 528 608 31,000 -780 Level New York Center
08:05PM 41.4258 -77.3617 101° East 528 608 29,500 -1,020 Descending New York Center
08:06PM 41.3950 -77.1678 102° East 536 617 29,000 -300 Descending New York Center
08:07PM 41.3658 -76.9714 101° East 536 617 29,000  Level New York Center
08:08PM 41.3339 -76.7806 103° East 531 611 29,000 -600 Level New York Center
08:09PM 41.2889 -76.5969 108° East 531 611 27,800 -2,220 Descending New York Center
08:10PM 41.2372 -76.4133 110° East 531 611 24,700 -2,880 Descending New York Center
08:12PM 41.1506 -76.0808 109° East 504 580 19,400 -2,340 Descending New York Center
08:14PM 41.0644 -75.7631 110° East 455 524 15,400 -1,980 Descending New York Center
08:15PM 41.0244 -75.6200 110° East 430 495 13,600 -1,500 Descending New York Center
08:16PM 40.9847 -75.4742 110° East 393 452 12,400 -1,440 Descending New York Center
08:17PM 40.9497 -75.3564 111° Southeast 380 437 10,800 -1,320 Descending New York Center
08:18PM 40.9131 -75.2247 110° East 358 412 9,900 -900 Descending New York Center
08:19PM 40.8836 -75.1186 110° East 326 375 9,000 -1,080 Descending New York Center
08:20PM 40.8539 -75.0178 111° Southeast 295 339 7,800 -1,020 Descending New York Center
08:21PM 40.8300 -74.9286 109° East 289 333 7,000 -420 Descending New York Center
08:22PM 40.8394 -74.8414 82° East 250 288 7,000  Level New York Center
08:23PM 40.8758 -74.7503 62° Northeast 243 280 7,000  Level New York Center
08:24PM 40.9172 -74.6950 45° Northeast 243 280 7,000  Level New York Center
08:25PM 40.9469 -74.6117 65° Northeast 217 250 7,000 -180 Level New York Center
08:26PM 40.9167 -74.5833 145° Southeast 270 311 6,800 -660 Descending New York TRACON
08:27PM 40.8333 -74.6000 189° South 268 308 6,000 -420 Descending New York TRACON
08:28PM 40.7667 -74.6000 180° South 262 302 6,000 -240 Level New York TRACON
08:28PM 40.7000 -74.6000 180° South 264 304 5,600 -540 Descending New York TRACON
08:29PM 40.6167 -74.5833 171° South 259 298 5,000 -300 Descending New York TRACON
08:30PM 40.5500 -74.5667 169° South 249 287 5,000 -240 Level New York TRACON
08:31PM 40.5000 -74.5167 143° Southeast 226 260 4,600 -540 Descending New York TRACON
08:32PM 40.4500 -74.4833 153° Southeast 225 259 4,000 -720 Descending New York TRACON
08:34PM 40.4333 -74.4167 108° East 185 213 3,100 -480 Descending New York TRACON
08:35PM 40.4500 -74.3500 72° East 187 215 3,000  Descending New York TRACON
08:35PM 40.4833 -74.3000 49° Northeast 187 215 3,100 60 Climbing New York TRACON
08:36PM 40.5167 -74.2667 37° Northeast 178 205 3,200 -360 Climbing New York TRACON
08:37PM 40.5667 -74.2500 14° North 191 220 2,400 -900 Descending New York TRACON
08:38PM 40.6167 -74.2167 27° Northeast 176 203 1,500 -900 Descending New York TRACON
08:39PM 40.6500 -74.1833 37° Northeast 132 152 700 -840 Descending New York TRACON